Time;durP1;ratioP1;P1;durP2;ratioP2;P2;SDS_P1;SDS_P2;PMS_P1;PMS_P2;Temp;Humidity;BMP_temperature;BMP_pressure;BME280_temperature;BME280_humidity;BME280_pressure;Samples;Min_cycle;Max_cycle;Signal;HPM_P1;HPM_P2
2023/07/10 00:01:14;;;;;;;28.52;24.23;;;19.70;99.90;;;;;;5062985;28;20052;-79
2023/07/10 00:03:40;;;;;;;21.88;19.02;;;19.70;99.90;;;;;;5063132;28;20044;-79
2023/07/10 00:06:11;;;;;;;21.65;19.45;;;19.70;99.90;;;;;;5066619;28;20044;-79
2023/07/10 00:08:40;;;;;;;21.63;19.45;;;19.70;99.90;;;;;;5031185;28;20083;-78
2023/07/10 00:11:24;;;;;;;24.08;20.77;;;19.70;99.90;;;;;;5050649;28;20040;-79
2023/07/10 00:13:50;;;;;;;20.50;18.50;;;19.70;99.90;;;;;;5037511;28;20546;-79
2023/07/10 00:16:19;;;;;;;22.42;19.88;;;19.70;99.90;;;;;;5042167;28;20044;-79
2023/07/10 00:18:45;;;;;;;22.58;20.17;;;19.70;99.90;;;;;;5053183;28;21911;-79
2023/07/10 00:21:11;;;;;;;24.20;21.77;;;19.70;99.90;;;;;;5022977;28;20803;-78
2023/07/10 00:23:37;;;;;;;20.58;18.40;;;19.70;99.90;;;;;;5044295;28;20040;-78
2023/07/10 00:26:29;;;;;;;21.98;19.67;;;19.70;99.90;;;;;;5046685;28;20052;-80
2023/07/10 00:28:57;;;;;;;21.52;19.48;;;19.70;99.90;;;;;;5045225;28;20104;-79
2023/07/10 00:31:27;;;;;;;23.63;21.23;;;19.70;99.90;;;;;;5031338;28;20048;-78
2023/07/10 00:33:53;;;;;;;20.17;17.88;;;19.70;99.90;;;;;;5028815;28;20137;-79
2023/07/10 00:36:33;;;;;;;22.70;20.65;;;19.70;99.90;;;;;;5046894;28;20182;-79
2023/07/10 00:39:20;;;;;;;23.63;21.35;;;19.70;99.90;;;;;;5029608;28;20068;-78
2023/07/10 00:41:51;;;;;;;25.08;22.45;;;19.70;99.90;;;;;;5029654;28;20056;-78
2023/07/10 00:44:23;;;;;;;51.13;33.38;;;19.70;99.90;;;;;;5029333;28;20522;-79
2023/07/10 00:46:54;;;;;;;25.77;23.35;;;19.70;99.90;;;;;;5048337;28;20148;-78
2023/07/10 00:49:54;;;;;;;25.00;22.60;;;19.70;99.90;;;;;;5047272;28;20055;-79
2023/07/10 00:52:25;;;;;;;25.20;22.70;;;19.70;99.90;;;;;;5044529;28;20171;-79
2023/07/10 00:54:57;;;;;;;40.45;35.00;;;19.70;99.90;;;;;;5028524;28;20055;-78
2023/07/10 00:57:33;;;;;;;26.83;24.10;;;19.70;99.90;;;;;;5046316;28;20959;-79
2023/07/10 01:00:00;;;;;;;34.72;27.70;;;19.60;99.90;;;;;;5046493;28;20064;-78
2023/07/10 01:02:26;;;;;;;26.73;24.13;;;19.60;99.90;;;;;;5045950;28;21124;-78
2023/07/10 01:05:00;;;;;;;30.50;27.27;;;19.60;99.90;;;;;;5029788;28;20051;-78
2023/07/10 01:07:31;;;;;;;25.98;23.50;;;19.60;99.90;;;;;;5017269;28;20154;-78
2023/07/10 01:10:01;;;;;;;28.55;25.70;;;19.60;99.90;;;;;;5045555;28;20044;-78
2023/07/10 01:12:28;;;;;;;;;;;19.60;99.90;;;;;;5054204;28;20432;-79
2023/07/10 01:14:53;;;;;;;25.58;23.17;;;19.50;99.90;;;;;;5050178;28;20061;-79
2023/07/10 01:17:19;;;;;;;25.52;23.02;;;19.50;99.90;;;;;;5068145;28;20139;-78
2023/07/10 01:19:46;;;;;;;40.78;33.30;;;19.60;99.90;;;;;;5052406;28;20037;-79
2023/07/10 01:22:13;;;;;;;38.08;31.13;;;19.60;99.90;;;;;;5051013;28;20070;-78
2023/07/10 01:24:39;;;;;;;30.23;27.15;;;19.50;99.90;;;;;;5043986;28;20045;-78
2023/07/10 01:27:11;;;;;;;27.42;24.80;;;19.50;99.90;;;;;;5049155;28;20037;-78
2023/07/10 01:29:42;;;;;;;30.63;27.58;;;19.60;99.90;;;;;;5065092;28;20123;-78
2023/07/10 01:32:16;;;;;;;33.45;30.00;;;19.60;99.90;;;;;;5067631;28;20045;-79
2023/07/10 01:34:53;;;;;;;34.78;31.33;;;19.60;99.90;;;;;;5073585;28;20039;-78
2023/07/10 01:37:19;;;;;;;43.03;36.85;;;19.50;99.90;;;;;;5063333;28;20059;-79
2023/07/10 01:39:48;;;;;;;54.05;40.17;;;19.50;99.90;;;;;;5050744;28;20051;-78
2023/07/10 01:42:14;;;;;;;37.80;33.88;;;19.40;99.90;;;;;;5061505;28;20045;-78
2023/07/10 01:44:42;;;;;;;35.33;31.90;;;19.50;99.90;;;;;;5075301;28;20039;-78
2023/07/10 01:47:10;;;;;;;34.67;31.30;;;19.50;99.90;;;;;;5065281;28;20071;-79
2023/07/10 01:49:45;;;;;;;45.95;37.75;;;19.40;99.90;;;;;;5069580;28;20024;-78
2023/07/10 01:52:13;;;;;;;62.40;45.67;;;19.40;99.90;;;;;;5049355;28;20457;-78
2023/07/10 01:54:39;;;;;;;59.65;44.25;;;19.40;99.90;;;;;;5053140;28;20047;-78
2023/07/10 01:57:06;;;;;;;38.78;34.63;;;19.40;99.90;;;;;;5049622;28;20420;-78
2023/07/10 01:59:35;;;;;;;34.55;31.23;;;19.40;99.90;;;;;;5047764;28;20057;-78
2023/07/10 02:02:01;;;;;;;39.10;34.72;;;19.40;99.90;;;;;;5037120;28;21503;-78
2023/07/10 02:04:27;;;;;;;32.35;29.25;;;19.40;99.90;;;;;;5040599;28;20048;-78
2023/07/10 02:06:54;;;;;;;35.50;31.95;;;19.40;99.90;;;;;;5045430;28;20041;-78
2023/07/10 02:09:26;;;;;;;37.78;34.03;;;19.40;99.90;;;;;;5046807;28;20116;-77
2023/07/10 02:11:52;;;;;;;41.05;37.00;;;19.30;99.90;;;;;;5040744;28;20368;-78
2023/07/10 02:14:18;;;;;;;44.15;36.15;;;19.30;99.90;;;;;;5060989;28;20107;-77
2023/07/10 02:16:45;;;;;;;39.08;34.95;;;19.30;99.90;;;;;;5067203;28;20056;-77
2023/07/10 02:19:11;;;;;;;32.45;29.25;;;19.30;99.90;;;;;;5052406;28;20399;-78
2023/07/10 02:21:47;;;;;;;35.22;31.38;;;19.30;99.90;;;;;;5065957;28;20057;-78
2023/07/10 02:24:13;;;;;;;32.78;29.45;;;19.30;99.90;;;;;;5053604;28;20122;-78
2023/07/10 02:26:39;;;;;;;36.25;32.83;;;19.30;99.90;;;;;;5047727;28;20632;-78
2023/07/10 02:29:05;;;;;;;32.97;29.90;;;19.30;99.90;;;;;;5066159;28;20037;-78
2023/07/10 02:31:31;;;;;;;32.13;28.98;;;19.30;99.90;;;;;;5045135;28;20048;-78
2023/07/10 02:33:56;;;;;;;36.90;33.00;;;19.20;99.90;;;;;;5059532;28;20064;-78
2023/07/10 02:36:23;;;;;;;50.85;38.65;;;19.20;99.90;;;;;;5051904;28;20495;-78
2023/07/10 02:38:49;;;;;;;50.47;40.05;;;19.00;99.90;;;;;;5061501;28;20419;-78
2023/07/10 02:41:15;;;;;;;34.83;31.48;;;19.20;99.90;;;;;;5060390;28;20131;-78
2023/07/10 02:43:41;;;;;;;38.10;33.97;;;19.20;99.90;;;;;;5035855;28;20123;-78
2023/07/10 02:46:10;;;;;;;32.75;29.67;;;19.20;99.90;;;;;;5058461;28;20076;-77
2023/07/10 02:48:35;;;;;;;38.42;34.30;;;19.20;99.90;;;;;;5066332;28;20666;-78
2023/07/10 02:51:01;;;;;;;33.03;29.73;;;19.10;99.90;;;;;;5056210;28;20052;-78
2023/07/10 02:53:27;;;;;;;30.55;27.65;;;19.10;99.90;;;;;;5065057;28;20072;-78
2023/07/10 02:55:53;;;;;;;38.05;34.28;;;19.10;99.90;;;;;;5057786;28;20424;-78
2023/07/10 02:58:19;;;;;;;33.03;29.17;;;19.10;99.90;;;;;;5034510;28;20068;-78
2023/07/10 03:00:53;;;;;;;30.60;27.80;;;19.10;99.90;;;;;;5035238;28;20049;-78
2023/07/10 03:03:19;;;;;;;31.42;28.30;;;19.10;99.90;;;;;;5053256;28;20051;-78
2023/07/10 03:05:53;;;;;;;30.70;27.42;;;19.10;99.90;;;;;;5057851;28;20040;-78
2023/07/10 03:08:19;;;;;;;35.72;31.17;;;19.00;99.90;;;;;;5045211;28;20056;-78
2023/07/10 03:10:44;;;;;;;31.52;28.40;;;19.00;99.90;;;;;;5051592;28;20131;-78
2023/07/10 03:13:10;;;;;;;32.30;29.38;;;19.00;99.90;;;;;;5061460;28;20037;-78
2023/07/10 03:15:36;;;;;;;37.05;33.53;;;19.00;99.90;;;;;;5073533;28;20111;-78
2023/07/10 03:18:02;;;;;;;30.10;27.17;;;19.00;99.90;;;;;;5044340;28;20206;-78
2023/07/10 03:20:27;;;;;;;35.08;31.65;;;19.00;99.90;;;;;;5043604;28;20049;-78
2023/07/10 03:22:53;;;;;;;36.45;33.10;;;19.00;99.90;;;;;;5058266;28;20036;-78
2023/07/10 03:25:19;;;;;;;38.15;34.20;;;19.00;99.90;;;;;;5057807;28;20530;-78
2023/07/10 03:27:48;;;;;;;36.72;33.33;;;19.00;99.90;;;;;;5050435;28;20049;-78
2023/07/10 03:30:14;;;;;;;44.95;39.95;;;19.00;99.90;;;;;;5051813;28;20519;-78
2023/07/10 03:32:40;;;;;;;38.50;34.65;;;19.00;99.90;;;;;;5059777;28;20049;-78
2023/07/10 03:35:06;;;;;;;36.05;32.65;;;19.00;99.90;;;;;;5045227;28;20083;-78
2023/07/10 03:37:32;;;;;;;35.78;32.35;;;19.00;99.90;;;;;;5063442;28;20044;-77
2023/07/10 03:39:57;;;;;;;34.55;31.20;;;19.00;99.90;;;;;;5053843;28;20542;-78
2023/07/10 03:42:23;;;;;;;28.58;26.05;;;18.90;99.90;;;;;;5063792;28;20044;-78
2023/07/10 03:44:49;;;;;;;27.55;25.05;;;18.90;99.90;;;;;;5065011;28;20066;-77
2023/07/10 03:47:14;;;;;;;31.65;28.77;;;18.90;99.90;;;;;;5051477;28;20048;-78
2023/07/10 03:49:40;;;;;;;27.33;24.88;;;18.90;99.90;;;;;;5048183;28;20059;-79
2023/07/10 03:52:06;;;;;;;32.70;29.55;;;18.90;99.90;;;;;;5042611;28;20123;-78
2023/07/10 03:54:33;;;;;;;31.13;28.05;;;18.90;99.90;;;;;;5039866;28;20052;-79
2023/07/10 03:56:59;;;;;;;27.23;24.67;;;18.90;99.90;;;;;;5061557;28;20382;-78
2023/07/10 03:59:25;;;;;;;29.45;26.63;;;18.90;99.90;;;;;;5048441;28;20058;-78
2023/07/10 04:01:50;;;;;;;29.48;26.63;;;18.90;99.90;;;;;;5042058;28;20060;-78
2023/07/10 04:04:16;;;;;;;31.23;27.10;;;18.80;99.90;;;;;;5045395;28;20509;-78
2023/07/10 04:06:42;;;;;;;28.77;26.02;;;18.80;99.90;;;;;;5063008;28;20041;-77
2023/07/10 04:09:10;;;;;;;23.98;21.60;;;18.80;99.90;;;;;;5052851;28;20056;-78
2023/07/10 04:11:36;;;;;;;24.48;22.25;;;18.80;99.90;;;;;;5047480;28;20620;-78
2023/07/10 04:14:02;;;;;;;25.08;22.92;;;18.80;99.90;;;;;;5044400;28;20041;-78
2023/07/10 04:16:29;;;;;;;35.13;31.35;;;18.80;99.90;;;;;;5063061;28;20410;-78
2023/07/10 04:18:55;;;;;;;24.63;22.48;;;18.80;99.90;;;;;;5044008;28;20051;-78
2023/07/10 04:21:28;;;;;;;22.05;19.90;;;18.80;99.90;;;;;;5065349;28;20052;-79
2023/07/10 04:23:54;;;;;;;30.73;27.80;;;18.80;99.90;;;;;;5059677;28;20044;-78
2023/07/10 04:26:23;;;;;;;27.15;24.88;;;18.80;99.90;;;;;;5046884;28;20617;-78
2023/07/10 04:28:51;;;;;;;23.60;21.40;;;18.80;99.90;;;;;;5041061;28;20080;-79
2023/07/10 04:31:18;;;;;;;29.00;26.40;;;18.80;99.90;;;;;;5059021;28;20087;-78
2023/07/10 04:33:44;;;;;;;24.95;22.63;;;18.80;99.90;;;;;;5051303;28;20094;-78
2023/07/10 04:36:10;;;;;;;32.67;29.45;;;18.90;99.90;;;;;;5046864;28;20512;-78
2023/07/10 04:38:36;;;;;;;24.23;22.10;;;18.90;99.90;;;;;;5042271;28;20037;-77
2023/07/10 04:41:05;;;;;;;40.75;34.03;;;18.90;99.90;;;;;;5055419;28;20036;-77
2023/07/10 04:43:33;;;;;;;26.50;23.90;;;18.90;99.90;;;;;;5047863;28;20400;-78
2023/07/10 04:46:02;;;;;;;25.00;22.60;;;18.90;99.90;;;;;;5042443;28;20506;-78
2023/07/10 04:48:29;;;;;;;27.83;24.90;;;18.90;99.90;;;;;;5050069;28;20048;-78
2023/07/10 04:50:55;;;;;;;24.10;21.75;;;18.90;99.90;;;;;;5033883;28;20032;-78
2023/07/10 04:53:22;;;;;;;25.95;23.50;;;18.90;99.90;;;;;;5059107;28;20057;-78
2023/07/10 04:55:51;;;;;;;32.20;28.80;;;18.90;99.90;;;;;;5034364;28;20495;-78
2023/07/10 04:58:17;;;;;;;25.52;23.02;;;18.90;99.90;;;;;;5045361;28;20051;-77
2023/07/10 05:00:43;;;;;;;26.58;23.80;;;19.00;99.90;;;;;;5051725;28;20053;-78
2023/07/10 05:03:09;;;;;;;27.10;24.55;;;19.00;99.90;;;;;;5029551;28;20044;-78
2023/07/10 05:05:35;;;;;;;33.65;30.08;;;19.00;99.90;;;;;;5044155;28;20114;-78
2023/07/10 05:08:01;;;;;;;29.50;26.60;;;19.00;99.90;;;;;;5045452;28;20072;-78
2023/07/10 05:10:27;;;;;;;30.50;27.25;;;19.00;99.90;;;;;;5048755;28;20083;-78
2023/07/10 05:12:54;;;;;;;25.92;23.52;;;19.00;99.90;;;;;;5056467;28;20604;-78
2023/07/10 05:15:20;;;;;;;22.70;20.58;;;19.00;99.90;;;;;;5057803;28;20042;-78
2023/07/10 05:17:46;;;;;;;21.95;19.60;;;19.00;99.90;;;;;;5056168;28;20057;-77
2023/07/10 05:20:12;;;;;;;16.15;14.65;;;19.00;99.90;;;;;;5048636;28;20036;-78
2023/07/10 05:22:39;;;;;;;16.77;15.05;;;19.00;99.90;;;;;;5044294;28;20055;-78
2023/07/10 05:25:06;;;;;;;16.80;13.77;;;19.00;99.90;;;;;;5048974;28;20041;-78
2023/07/10 05:27:31;;;;;;;13.52;11.80;;;19.00;99.90;;;;;;5046380;28;20102;-80
2023/07/10 05:29:57;;;;;;;12.88;11.57;;;18.90;99.90;;;;;;5069179;28;20050;-78
2023/07/10 05:32:23;;;;;;;12.50;11.27;;;19.00;99.90;;;;;;5050295;28;20066;-78
2023/07/10 05:34:48;;;;;;;10.88;9.50;;;18.90;99.90;;;;;;5066649;28;20040;-78
2023/07/10 05:37:14;;;;;;;9.32;8.32;;;19.00;99.90;;;;;;5046062;28;20044;-78
2023/07/10 05:39:40;;;;;;;11.38;9.57;;;19.00;99.90;;;;;;5048630;28;20659;-78
2023/07/10 05:42:12;;;;;;;10.20;8.48;;;19.00;99.90;;;;;;5048008;28;20040;-77
2023/07/10 05:44:38;;;;;;;9.25;7.03;;;19.00;99.90;;;;;;5050255;28;20044;-78
2023/07/10 05:47:04;;;;;;;8.68;6.40;;;19.00;99.90;;;;;;5062936;28;20098;-78
2023/07/10 05:49:32;;;;;;;8.20;6.28;;;19.00;99.90;;;;;;5062688;28;20044;-78
2023/07/10 05:51:58;;;;;;;8.40;6.78;;;19.00;99.90;;;;;;5054678;28;20131;-78
2023/07/10 05:54:24;;;;;;;8.95;6.35;;;19.00;99.90;;;;;;5063214;28;20672;-77
2023/07/10 05:56:49;;;;;;;8.07;5.75;;;19.00;99.90;;;;;;5066123;28;20469;-77
2023/07/10 05:59:16;;;;;;;6.80;4.60;;;19.00;99.90;;;;;;5042186;28;20052;-77
2023/07/10 06:01:42;;;;;;;10.77;5.63;;;19.00;99.90;;;;;;5034871;28;20084;-78
2023/07/10 06:04:13;;;;;;;6.93;4.22;;;19.10;99.90;;;;;;5050744;28;20045;-77
2023/07/10 06:06:39;;;;;;;5.97;3.80;;;19.10;99.90;;;;;;5065354;28;20135;-78
2023/07/10 06:09:05;;;;;;;7.07;4.13;;;19.00;99.90;;;;;;5044793;28;20056;-77
2023/07/10 06:11:31;;;;;;;7.13;4.57;;;19.00;99.90;;;;;;5047576;28;20843;-76
2023/07/10 06:13:57;;;;;;;7.35;4.28;;;19.00;99.90;;;;;;5050133;28;20047;-78
2023/07/10 06:16:22;;;;;;;8.43;4.68;;;19.00;99.90;;;;;;5049144;28;20265;-78
2023/07/10 06:18:48;;;;;;;8.52;4.03;;;19.00;99.90;;;;;;5059763;28;20538;-77
2023/07/10 06:21:14;;;;;;;8.90;3.92;;;19.00;99.90;;;;;;5045136;28;20044;-77
2023/07/10 06:23:40;;;;;;;9.90;4.57;;;19.00;99.90;;;;;;5056677;28;20154;-77
2023/07/10 06:26:06;;;;;;;9.30;3.90;;;19.00;99.90;;;;;;5064564;28;20665;-77
2023/07/10 06:28:33;;;;;;;9.10;4.13;;;19.10;99.90;;;;;;5044016;28;20119;-77
2023/07/10 06:31:09;;;;;;;9.98;3.72;;;19.10;99.90;;;;;;5046993;28;20047;-77
2023/07/10 06:33:36;;;;;;;9.20;4.82;;;19.20;99.90;;;;;;5062564;28;20072;-78
2023/07/10 06:36:04;;;;;;;7.97;3.65;;;19.20;99.90;;;;;;5054383;28;20114;-78
2023/07/10 06:38:30;;;;;;;9.75;3.42;;;19.20;99.90;;;;;;5040847;28;20037;-77
2023/07/10 06:40:57;;;;;;;6.35;3.72;;;19.30;99.90;;;;;;5044972;28;20118;-79
2023/07/10 06:43:23;;;;;;;9.25;3.45;;;19.30;99.90;;;;;;5058146;28;20094;-78
2023/07/10 06:45:50;;;;;;;5.38;2.97;;;19.30;99.90;;;;;;5038473;28;20125;-77
2023/07/10 06:48:16;;;;;;;7.32;3.50;;;19.40;99.90;;;;;;5058296;28;20044;-78
2023/07/10 06:50:48;;;;;;;6.10;3.40;;;19.40;99.90;;;;;;5063470;28;20494;-77
2023/07/10 06:53:14;;;;;;;9.40;2.80;;;19.40;99.90;;;;;;5059907;28;20051;-78
2023/07/10 06:55:40;;;;;;;8.23;3.13;;;19.40;99.90;;;;;;5063325;28;20403;-78
2023/07/10 06:58:06;;;;;;;5.78;2.95;;;19.50;99.90;;;;;;5043455;28;20033;-78
2023/07/10 07:00:32;;;;;;;7.78;3.03;;;19.60;99.90;;;;;;5044846;28;20094;-79
2023/07/10 07:02:58;;;;;;;7.40;3.03;;;19.70;99.90;;;;;;5052789;28;20614;-80
2023/07/10 07:05:23;;;;;;;6.90;2.88;;;19.80;99.90;;;;;;5065056;28;20119;-80
2023/07/10 07:07:49;;;;;;;6.97;3.08;;;19.90;99.90;;;;;;5047662;28;20041;-81
2023/07/10 07:10:15;;;;;;;6.88;2.70;;;19.90;99.90;;;;;;5066774;28;20047;-80
2023/07/10 07:12:42;;;;;;;8.27;3.17;;;20.00;99.90;;;;;;5046713;28;20748;-81
2023/07/10 07:15:10;;;;;;;7.05;3.20;;;20.10;99.90;;;;;;5059308;28;20123;-81
2023/07/10 07:17:36;;;;;;;6.13;2.50;;;20.20;99.90;;;;;;5041160;28;20135;-81
2023/07/10 07:20:02;;;;;;;7.13;2.67;;;20.40;99.90;;;;;;5059281;28;20122;-81
2023/07/10 07:22:28;;;;;;;7.82;2.75;;;20.50;99.90;;;;;;5068164;28;20203;-81
2023/07/10 07:24:53;;;;;;;6.97;3.03;;;20.70;99.90;;;;;;5066916;28;20052;-80
2023/07/10 07:27:19;;;;;;;6.93;2.80;;;20.80;99.90;;;;;;5064033;28;20089;-81
2023/07/10 07:29:50;;;;;;;6.20;2.78;;;20.90;99.90;;;;;;5045276;28;20069;-82
2023/07/10 07:32:17;;;;;;;9.07;3.25;;;21.10;99.90;;;;;;5045157;28;20053;-82
2023/07/10 07:34:44;;;;;;;5.70;2.50;;;21.20;99.90;;;;;;5042852;28;20036;-82
2023/07/10 07:37:10;;;;;;;6.72;2.30;;;21.30;99.90;;;;;;5056592;28;20044;-82
2023/07/10 07:39:36;;;;;;;6.82;3.53;;;21.30;99.90;;;;;;5064453;28;20040;-83
2023/07/10 07:42:02;;;;;;;8.02;2.67;;;21.50;99.90;;;;;;5051456;28;20040;-83
2023/07/10 07:44:28;;;;;;;6.80;2.80;;;21.50;99.90;;;;;;5047742;28;20445;-82
2023/07/10 07:46:54;;;;;;;7.90;2.78;;;21.50;99.90;;;;;;5048153;28;20094;-81
2023/07/10 07:49:23;;;;;;;10.30;3.03;;;21.70;99.90;;;;;;5046792;28;20272;-82
2023/07/10 07:51:51;;;;;;;5.95;2.42;;;21.80;99.90;;;;;;5056075;28;20052;-84
2023/07/10 07:54:17;;;;;;;7.50;2.85;;;21.90;99.90;;;;;;5048797;28;20045;-83
2023/07/10 07:56:42;;;;;;;7.70;2.70;;;22.00;99.90;;;;;;5067740;28;20044;-83
2023/07/10 07:59:08;;;;;;;9.15;2.58;;;22.10;99.90;;;;;;5042348;28;20032;-82
2023/07/10 08:01:34;;;;;;;8.93;2.63;;;22.20;99.90;;;;;;5067196;28;20091;-83
2023/07/10 08:04:00;;;;;;;8.75;2.50;;;22.30;99.90;;;;;;5047953;28;20068;-82
2023/07/10 08:06:31;;;;;;;6.97;2.70;;;22.40;99.90;;;;;;5048115;28;20036;-82
2023/07/10 08:09:00;;;;;;;7.68;2.60;;;22.50;99.90;;;;;;5045465;28;20055;-82
2023/07/10 08:11:26;;;;;;;6.47;2.13;;;22.50;99.90;;;;;;5069288;28;20048;-82
2023/07/10 08:13:52;;;;;;;6.50;2.55;;;22.60;99.90;;;;;;5062022;28;20060;-81
2023/07/10 08:16:19;;;;;;;6.55;2.47;;;22.60;99.90;;;;;;5047431;28;20114;-82
2023/07/10 08:18:44;;;;;;;7.78;2.95;;;22.70;99.90;;;;;;5064259;28;20056;-81
2023/07/10 08:21:12;;;;;;;6.93;1.98;;;22.90;99.90;;;;;;5068655;28;20036;-82
2023/07/10 08:23:38;;;;;;;7.25;2.30;;;23.00;99.90;;;;;;5067776;28;21891;-81
2023/07/10 08:26:05;;;;;;;6.85;2.55;;;23.10;99.90;;;;;;5069396;28;20052;-82
2023/07/10 08:28:31;;;;;;;6.32;2.15;;;23.20;99.90;;;;;;5054116;28;20127;-81
2023/07/10 08:30:57;;;;;;;8.65;2.50;;;23.30;99.90;;;;;;5055264;28;20118;-81
2023/07/10 08:33:22;;;;;;;7.63;2.50;;;23.20;99.90;;;;;;5058385;28;20132;-82
2023/07/10 08:35:59;;;;;;;9.65;2.45;;;23.30;99.90;;;;;;5046388;28;20179;-81
2023/07/10 08:38:24;;;;;;;8.50;2.42;;;23.30;99.90;;;;;;5048782;28;20036;-80
2023/07/10 08:40:54;;;;;;;6.78;2.22;;;23.30;99.90;;;;;;5048749;28;20139;-81
2023/07/10 08:43:31;;;;;;;8.25;2.85;;;23.30;99.90;;;;;;5048059;28;20032;-81
2023/07/10 08:46:15;;;;;;;6.13;2.30;;;23.30;99.90;;;;;;5052568;28;20705;-81
2023/07/10 08:49:03;;;;;;;6.78;2.30;;;23.40;99.90;;;;;;5049181;28;20060;-81
2023/07/10 08:51:40;;;;;;;9.73;2.58;;;23.50;99.90;;;;;;5054713;28;20060;-81
2023/07/10 08:54:12;;;;;;;7.93;2.35;;;23.40;99.90;;;;;;5051748;28;20062;-83
2023/07/10 08:57:00;;;;;;;8.07;2.15;;;23.30;99.90;;;;;;5074052;28;20044;-81
2023/07/10 08:59:38;;;;;;;7.70;2.78;;;23.30;99.90;;;;;;5049232;28;20044;-83
2023/07/10 09:02:36;;;;;;;5.95;1.98;;;23.50;99.90;;;;;;5068312;28;20091;-81
2023/07/10 09:05:06;;;;;;;10.35;2.92;;;23.60;99.90;;;;;;5067801;28;20397;-82
2023/07/10 09:07:42;;;;;;;9.77;3.00;;;23.50;99.90;;;;;;5050976;28;20052;-81
2023/07/10 09:10:22;;;;;;;8.23;2.47;;;23.40;99.90;;;;;;5072671;28;20033;-82
2023/07/10 09:12:54;;;;;;;8.73;2.20;;;23.60;99.90;;;;;;5070293;28;20114;-81
2023/07/10 09:15:43;;;;;;;9.77;2.50;;;23.70;99.90;;;;;;5068909;28;20174;-81
2023/07/10 09:18:20;;;;;;;8.80;2.80;;;23.80;99.90;;;;;;5048864;28;20032;-81
2023/07/10 09:20:57;;;;;;;7.70;2.17;;;23.90;99.90;;;;;;5073275;28;20051;-81
2023/07/10 09:23:28;;;;;;;8.32;2.60;;;24.00;99.90;;;;;;5055003;28;20036;-81
2023/07/10 09:25:56;;;;;;;6.53;2.58;;;24.00;99.90;;;;;;5066160;28;20044;-82
2023/07/10 09:28:23;;;;;;;8.43;2.28;;;24.00;99.90;;;;;;5052217;28;20088;-82
2023/07/10 09:31:08;;;;;;;10.77;3.15;;;24.00;99.90;;;;;;5064613;28;20403;-81
2023/07/10 09:33:42;;;;;;;9.25;2.88;;;24.20;99.90;;;;;;5052017;28;20056;-81
2023/07/10 09:36:18;;;;;;;9.90;2.78;;;24.20;99.90;;;;;;5048360;28;20122;-81
2023/07/10 09:38:45;;;;;;;8.95;2.78;;;24.20;99.90;;;;;;5055129;28;20131;-82
2023/07/10 09:41:13;;;;;;;8.02;3.13;;;24.40;99.90;;;;;;5056093;28;20048;-81
2023/07/10 09:43:53;;;;;;;9.82;3.00;;;24.30;99.90;;;;;;5045925;28;20051;-81
2023/07/10 09:46:23;;;;;;;8.40;2.70;;;24.20;99.90;;;;;;5044541;28;20041;-80
2023/07/10 09:48:51;;;;;;;10.98;2.83;;;24.20;99.90;;;;;;5064209;28;20493;-81
2023/07/10 09:51:18;;;;;;;8.55;2.80;;;24.40;99.90;;;;;;5047934;28;20415;-81
2023/07/10 09:53:49;;;;;;;9.00;3.03;;;24.70;99.90;;;;;;5064961;28;20056;-80
2023/07/10 09:56:30;;;;;;;11.00;2.83;;;24.70;99.90;;;;;;5045409;28;20059;-81
2023/07/10 09:58:56;;;;;;;9.77;2.85;;;24.60;99.90;;;;;;5048507;28;20040;-81
2023/07/10 10:01:40;;;;;;;7.68;2.40;;;24.50;99.90;;;;;;5045293;28;20056;-80
2023/07/10 10:04:06;;;;;;;7.18;2.47;;;24.20;99.90;;;;;;5058634;28;20101;-80
2023/07/10 10:06:32;;;;;;;9.60;2.60;;;24.10;99.90;;;;;;5059783;28;20044;-81
2023/07/10 10:09:03;;;;;;;7.05;2.47;;;24.10;99.90;;;;;;5068420;28;20117;-80
2023/07/10 10:11:41;;;;;;;7.55;2.50;;;24.10;99.90;;;;;;5058927;28;20405;-80
2023/07/10 10:14:15;;;;;;;10.98;2.40;;;24.00;99.90;;;;;;5053446;28;20123;-81
2023/07/10 10:16:47;;;;;;;9.43;2.60;;;23.90;99.90;;;;;;5064170;28;20119;-81
2023/07/10 10:19:33;;;;;;;6.80;2.55;;;23.80;99.90;;;;;;5068067;28;20471;-80
2023/07/10 10:21:59;;;;;;;7.45;2.50;;;23.90;99.90;;;;;;5070792;28;20123;-80
2023/07/10 10:24:29;;;;;;;9.20;2.33;;;24.00;99.90;;;;;;5065752;28;20178;-80
2023/07/10 10:27:19;;;;;;;9.43;2.70;;;24.20;99.90;;;;;;5047886;28;20160;-82
2023/07/10 10:30:37;;;;;;;7.93;2.30;;;24.50;99.90;;;;;;5063954;28;20041;-83
2023/07/10 10:33:40;;;;;;;10.35;2.30;;;24.60;99.90;;;;;;5022373;28;20118;-82
2023/07/10 10:36:26;;;;;;;8.23;2.38;;;24.70;99.90;;;;;;5053464;28;20550;-81
2023/07/10 10:39:01;;;;;;;9.25;2.60;;;25.00;99.90;;;;;;5051256;28;20066;-82
2023/07/10 10:41:44;;;;;;;9.43;2.60;;;25.20;99.90;;;;;;5047289;28;20059;-81
2023/07/10 10:44:29;;;;;;;7.85;2.30;;;25.30;99.90;;;;;;5052549;28;20507;-82
2023/07/10 10:47:30;;;;;;;7.40;2.35;;;25.30;99.90;;;;;;5064840;28;20122;-81
2023/07/10 10:50:35;;;;;;;7.70;1.98;;;25.00;99.90;;;;;;5050295;28;20040;-81
2023/07/10 10:53:13;;;;;;;8.50;2.10;;;24.90;99.90;;;;;;5047872;28;20044;-81
2023/07/10 10:55:54;;;;;;;9.60;2.58;;;25.10;99.90;;;;;;5047295;28;20051;-82
2023/07/10 10:58:38;;;;;;;7.45;2.15;;;25.30;99.90;;;;;;5045507;28;20059;-82
2023/07/10 11:01:14;;;;;;;7.15;2.40;;;25.40;99.90;;;;;;5075037;28;20040;-81
2023/07/10 11:03:55;;;;;;;6.53;2.03;;;25.60;99.80;;;;;;5057564;28;20049;-81
2023/07/10 11:06:29;;;;;;;9.52;2.42;;;25.70;99.90;;;;;;5064370;28;20506;-81
2023/07/10 11:09:04;;;;;;;8.02;2.20;;;25.90;98.70;;;;;;5061998;28;21238;-81
2023/07/10 11:11:36;;;;;;;7.05;2.00;;;26.00;98.40;;;;;;5064687;28;20052;-81
2023/07/10 11:14:04;;;;;;;9.43;2.05;;;26.10;99.60;;;;;;5040902;28;20048;-81
2023/07/10 11:16:32;;;;;;;8.82;2.30;;;26.30;98.40;;;;;;5045805;28;20086;-81
2023/07/10 11:18:58;;;;;;;9.32;2.67;;;26.30;97.60;;;;;;5041047;28;20036;-82
2023/07/10 11:21:24;;;;;;;7.15;1.65;;;26.10;96.50;;;;;;5067656;28;20050;-81
2023/07/10 11:23:50;;;;;;;8.68;1.95;;;25.90;95.90;;;;;;5070044;28;20051;-81
2023/07/10 11:26:17;;;;;;;7.93;1.80;;;25.60;94.90;;;;;;5047830;28;20041;-81
2023/07/10 11:28:54;;;;;;;6.97;1.90;;;25.30;94.10;;;;;;5065549;28;20058;-82
2023/07/10 11:31:32;;;;;;;7.63;2.03;;;25.00;94.60;;;;;;5061656;28;20050;-81
2023/07/10 11:34:30;;;;;;;7.50;2.20;;;24.80;95.50;;;;;;5049873;28;20818;-82
2023/07/10 11:36:58;;;;;;;6.32;2.03;;;24.60;96.20;;;;;;5035408;28;20146;-81
2023/07/10 11:39:31;;;;;;;4.55;1.83;;;24.50;94.70;;;;;;5059628;28;20048;-80
2023/07/10 11:42:03;;;;;;;7.07;2.20;;;24.60;96.00;;;;;;5059805;28;20048;-80
2023/07/10 11:44:29;;;;;;;6.50;2.00;;;24.80;96.60;;;;;;5046905;28;20075;-81
2023/07/10 11:47:05;;;;;;;8.20;2.13;;;25.00;96.20;;;;;;5049973;28;20598;-81
2023/07/10 11:49:40;;;;;;;8.32;2.00;;;25.20;94.00;;;;;;5069827;28;20063;-82
2023/07/10 11:52:15;;;;;;;5.40;1.90;;;25.30;95.20;;;;;;5058193;28;20419;-81
2023/07/10 11:54:47;;;;;;;8.90;3.15;;;25.50;95.00;;;;;;5045930;28;20044;-81
2023/07/10 11:57:35;;;;;;;7.20;2.33;;;25.70;94.80;;;;;;5066668;28;20105;-81
2023/07/10 12:00:06;;;;;;;5.97;1.60;;;25.90;94.70;;;;;;5064831;28;20056;-82
2023/07/10 12:02:43;;;;;;;7.53;1.75;;;26.00;93.00;;;;;;5051675;28;20052;-82
2023/07/10 12:05:36;;;;;;;7.05;1.75;;;26.10;92.70;;;;;;5042968;28;20506;-82
2023/07/10 12:08:08;;;;;;;7.20;1.58;;;26.30;93.40;;;;;;5059467;28;20054;-82
2023/07/10 12:10:41;;;;;;;3.78;1.58;;;26.40;92.30;;;;;;5063756;28;20044;-79
2023/07/10 12:13:45;;;;;;;7.30;1.60;;;26.40;90.50;;;;;;5060670;28;20100;-82
2023/07/10 12:16:12;;;;;;;10.18;3.90;;;26.50;87.50;;;;;;4984975;28;20041;-82
2023/07/10 12:18:39;;;;;;;8.60;1.98;;;26.50;89.30;;;;;;4986689;28;20085;-82
2023/07/10 12:21:31;;;;;;;5.70;1.80;;;26.60;88.50;;;;;;5031443;28;20048;-82
2023/07/10 12:24:13;;;;;;;6.43;1.58;;;26.60;89.90;;;;;;5069982;28;20049;-82
2023/07/10 12:26:43;;;;;;;7.60;1.95;;;26.60;90.40;;;;;;5063325;28;20185;-81
2023/07/10 12:29:14;;;;;;;5.50;1.63;;;26.60;90.20;;;;;;5054113;28;20074;-82
2023/07/10 12:31:41;;;;;;;8.93;1.77;;;26.50;90.10;;;;;;5067973;28;20550;-82
2023/07/10 12:34:26;;;;;;;7.20;1.45;;;26.40;89.40;;;;;;5045014;28;20052;-81
2023/07/10 12:36:55;;;;;;;7.45;1.90;;;26.40;88.60;;;;;;5045933;28;20831;-82
2023/07/10 12:39:22;;;;;;;6.03;1.60;;;26.30;88.90;;;;;;5044288;28;20044;-82
2023/07/10 12:41:52;;;;;;;7.22;1.70;;;26.40;90.70;;;;;;5064376;28;20044;-82
2023/07/10 12:44:22;;;;;;;6.93;1.67;;;26.30;88.90;;;;;;5052243;28;20071;-82
2023/07/10 12:46:52;;;;;;;;;;;26.20;88.20;;;;;;5058741;28;20041;-82
2023/07/10 12:49:18;;;;;;;5.75;1.40;;;26.20;90.10;;;;;;5060213;28;19924;-83
2023/07/10 12:51:47;;;;;;;4.88;1.75;;;26.20;91.10;;;;;;5043155;28;20047;-82
2023/07/10 12:54:19;;;;;;;7.75;1.58;;;26.30;89.70;;;;;;5040963;28;20736;-82